Time;durP1;ratioP1;P1;durP2;ratioP2;P2;SDS_P1;SDS_P2;PMS_P1;PMS_P2;Temp;Humidity;BMP_temperature;BMP_pressure;BME280_temperature;BME280_humidity;BME280_pressure;Samples;Min_cycle;Max_cycle;Signal;HPM_P1;HPM_P2
2023/05/20 00:01:58;;;;;;;10.30;5.30;;;;;;;12.93;65.07;102321.63;5054413;23;20071;-77
2023/05/20 00:04:23;;;;;;;10.07;5.40;;;;;;;12.91;64.85;102320.69;5056545;23;20053;-63
2023/05/20 00:06:48;;;;;;;9.82;5.32;;;;;;;12.87;64.44;102311.88;5240855;23;20453;-62
2023/05/20 00:09:15;;;;;;;11.50;5.80;;;;;;;12.84;63.31;102316.94;5043930;22;20107;-77
2023/05/20 00:11:41;;;;;;;10.07;5.35;;;;;;;12.82;65.59;102308.16;5066245;23;20140;-63
2023/05/20 00:14:06;;;;;;;11.23;6.00;;;;;;;12.78;66.37;102308.88;5032813;28;20025;-63
2023/05/20 00:21:42;;;;;;;10.13;5.68;;;;;;;12.69;66.87;102316.38;5224338;23;20119;-63
2023/05/20 00:24:07;;;;;;;9.93;5.57;;;;;;;12.74;67.07;102320.06;5123034;22;20050;-63
2023/05/20 00:26:33;;;;;;;13.00;6.00;;;;;;;12.68;66.54;102315.47;5015767;28;20386;-63
2023/05/20 00:28:58;;;;;;;9.25;5.85;;;;;;;12.65;66.36;102317.09;5065526;23;20480;-77
2023/05/20 00:31:23;;;;;;;9.25;5.68;;;;;;;12.61;67.83;102321.28;5032777;28;20025;-77
2023/05/20 00:33:49;;;;;;;9.90;5.32;;;;;;;12.56;68.56;102314.09;5056777;23;20191;-63
2023/05/20 00:38:43;;;;;;;9.50;5.60;;;;;;;12.56;68.05;102312.41;5100655;22;20063;-63
2023/05/20 00:41:08;;;;;;;9.57;5.75;;;;;;;12.53;67.79;102309.66;5204487;22;20025;-63
2023/05/20 00:43:34;;;;;;;13.45;5.50;;;;;;;12.48;69.19;102306.88;5101573;23;20036;-62
2023/05/20 00:46:00;;;;;;;10.57;5.65;;;;;;;12.47;69.02;102309.41;5029964;28;20651;-62
2023/05/20 00:48:35;;;;;;;11.15;5.97;;;;;;;12.41;64.06;102306.56;5004773;22;20507;-63
2023/05/20 00:51:01;;;;;;;10.88;5.90;;;;;;;12.41;68.93;102309.16;5174886;23;20057;-63
2023/05/20 00:53:27;;;;;;;11.10;5.82;;;;;;;12.34;68.83;102303.72;5054138;23;21328;-63
2023/05/20 00:55:52;;;;;;;10.65;5.78;;;;;;;12.27;67.87;102308.63;5080281;22;20083;-77
2023/05/20 00:58:17;;;;;;;10.73;6.03;;;;;;;12.20;68.25;102299.66;5184753;22;20142;-63
2023/05/20 01:00:43;;;;;;;11.48;5.75;;;;;;;12.15;69.41;102301.16;5069339;22;20160;-63
2023/05/20 01:03:08;;;;;;;13.13;5.70;;;;;;;12.15;70.10;102301.16;5074600;22;20053;-62
2023/05/20 01:05:34;;;;;;;11.32;5.93;;;;;;;12.14;70.18;102295.06;5091360;22;20061;-77
2023/05/20 01:07:59;;;;;;;11.93;5.57;;;;;;;12.15;70.13;102295.94;5125285;22;20162;-77
2023/05/20 01:10:29;;;;;;;10.50;6.00;;;;;;;12.07;67.81;102298.25;5073345;23;20492;-63
2023/05/20 01:12:55;;;;;;;;;;;;;;;12.09;67.18;102295.69;5054676;23;20090;-77
2023/05/20 01:15:26;;;;;;;9.35;5.88;;;;;;;12.05;68.07;102294.69;5344118;23;19929;-77
2023/05/20 01:17:57;;;;;;;10.60;6.28;;;;;;;12.07;70.64;102294.75;5100184;22;20080;-77
2023/05/20 01:20:23;;;;;;;12.40;5.78;;;;;;;12.05;67.23;102291.19;5030762;28;20513;-77
2023/05/20 01:22:53;;;;;;;15.55;6.75;;;;;;;11.96;71.07;102291.69;5060721;23;20056;-77
2023/05/20 01:25:18;;;;;;;13.88;6.18;;;;;;;11.99;70.71;102292.72;5234399;23;20048;-77
2023/05/20 01:27:48;;;;;;;12.32;6.47;;;;;;;11.95;71.41;102287.31;5232301;23;20068;-77
2023/05/20 01:30:14;;;;;;;;;;;;;;;11.98;68.57;102292.66;5152237;22;20543;-77
2023/05/20 01:35:27;;;;;;;11.32;6.22;;;;;;;11.90;70.52;102292.28;5215264;22;20052;-75
2023/05/20 01:37:55;;;;;;;11.02;6.28;;;;;;;11.82;71.69;102285.88;5219562;22;1070275;31
2023/05/20 01:40:22;;;;;;;14.17;6.53;;;;;;;11.80;71.68;102282.28;5156285;22;20443;-63
2023/05/20 01:42:51;;;;;;;10.43;6.10;;;;;;;11.77;71.04;102276.94;5072458;22;20308;-63
2023/05/20 01:45:17;;;;;;;11.35;6.13;;;;;;;11.79;72.18;102280.53;5029353;28;20519;-63
2023/05/20 01:52:51;;;;;;;10.43;6.43;;;;;;;11.62;72.21;102272.88;5172618;22;20062;-63
2023/05/20 02:00:19;;;;;;;14.80;6.85;;;;;;;11.59;73.22;102270.13;5116260;23;20416;-62
2023/05/20 02:02:44;;;;;;;12.88;6.35;;;;;;;11.56;70.75;102267.41;5420723;23;20065;-62
2023/05/20 02:05:09;;;;;;;10.45;6.47;;;;;;;11.56;71.25;102274.34;5144189;22;20074;-63
2023/05/20 02:07:35;;;;;;;11.90;6.43;;;;;;;11.55;73.79;102265.59;5209239;22;20083;-63
2023/05/20 02:10:00;;;;;;;11.70;5.90;;;;;;;11.53;72.57;102269.88;5149236;23;20057;-62
2023/05/20 02:14:55;;;;;;;15.45;6.40;;;;;;;11.48;72.83;102268.78;5193718;22;20065;-62
2023/05/20 02:17:20;;;;;;;10.65;6.60;;;;;;;11.46;73.22;102265.22;5161671;22;20065;-63
2023/05/20 02:19:46;;;;;;;12.20;6.65;;;;;;;11.45;73.06;102274.75;5193625;23;20061;-63
2023/05/20 02:22:12;;;;;;;11.98;6.22;;;;;;;11.43;71.14;102271.19;5197760;22;20508;-62
2023/05/20 02:24:37;;;;;;;10.27;6.32;;;;;;;11.44;73.06;102272.06;5205171;23;20413;-63
2023/05/20 02:27:03;;;;;;;12.77;6.50;;;;;;;11.42;73.80;102269.41;5337034;22;20033;-62
2023/05/20 02:32:27;;;;;;;12.25;6.95;;;;;;;11.30;74.75;102259.34;5267391;22;20132;-62
2023/05/20 02:34:54;;;;;;;12.40;6.95;;;;;;;11.25;75.18;102257.34;5074034;23;20041;-63
2023/05/20 02:37:19;;;;;;;13.75;6.82;;;;;;;11.21;75.31;102261.56;5202619;23;20263;-63
2023/05/20 02:39:45;;;;;;;13.23;6.32;;;;;;;11.20;74.84;102264.09;5151763;23;20060;-62
2023/05/20 02:42:10;;;;;;;12.57;6.70;;;;;;;11.21;75.39;102258.94;5189299;22;20539;-62
2023/05/20 02:47:12;;;;;;;15.15;6.85;;;;;;;11.14;75.52;102262.09;5194574;22;20065;-62
2023/05/20 02:49:38;;;;;;;12.70;6.43;;;;;;;11.13;76.46;102260.31;5120928;22;20393;-62
2023/05/20 02:52:03;;;;;;;13.05;7.00;;;;;;;11.11;75.86;102262.84;5033596;28;20274;-62
2023/05/20 02:54:29;;;;;;;12.48;7.32;;;;;;;11.06;76.04;102256.53;5213297;23;20065;-62
2023/05/20 02:56:54;;;;;;;11.82;6.35;;;;;;;11.07;75.93;102254.84;5225966;22;20093;-62
2023/05/20 02:59:20;;;;;;;14.45;7.43;;;;;;;11.04;75.96;102254.69;5063730;23;20059;-62
2023/05/20 03:01:45;;;;;;;11.18;6.60;;;;;;;11.01;74.68;102258.06;5154946;22;20693;-62
2023/05/20 03:06:45;;;;;;;14.98;7.05;;;;;;;10.97;77.20;102261.34;5221021;22;20057;-62
2023/05/20 03:09:10;;;;;;;12.43;7.22;;;;;;;11.00;76.05;102253.66;5317011;22;20068;-63
2023/05/20 03:11:36;;;;;;;12.32;6.55;;;;;;;10.99;76.95;102256.19;5036178;28;20025;-62
2023/05/20 03:14:01;;;;;;;15.13;7.28;;;;;;;11.01;77.32;102258.06;5184424;23;20202;-62
2023/05/20 03:18:55;;;;;;;11.68;6.30;;;;;;;10.96;76.11;102254.34;5193242;22;20512;-62
2023/05/20 03:21:22;;;;;;;13.68;7.15;;;;;;;10.94;77.76;102258.59;5196804;22;20027;-60
2023/05/20 03:26:17;;;;;;;11.50;6.38;;;;;;;10.89;77.89;102249.66;5182170;23;19924;-60
2023/05/20 03:28:43;;;;;;;11.67;6.60;;;;;;;10.88;77.52;102260.94;5204952;22;20056;-62
2023/05/20 03:31:08;;;;;;;11.98;6.63;;;;;;;10.92;77.69;102260.22;5203330;23;20056;-62
2023/05/20 03:33:34;;;;;;;11.85;7.20;;;;;;;10.91;77.84;102256.75;5033380;28;20123;-62
2023/05/20 03:35:59;;;;;;;12.18;6.35;;;;;;;10.89;74.59;102262.72;5193838;23;20053;-62
2023/05/20 03:40:59;;;;;;;11.10;6.85;;;;;;;10.84;78.42;102256.41;5150221;23;20057;-63
2023/05/20 03:45:54;;;;;;;12.27;7.10;;;;;;;10.76;77.95;102261.25;5077699;23;20053;-63
2023/05/20 03:48:19;;;;;;;12.80;6.72;;;;;;;10.75;79.21;102257.75;5298977;22;20065;-62
2023/05/20 03:50:44;;;;;;;14.60;6.88;;;;;;;10.73;79.14;102253.31;5297683;23;20941;-62
2023/05/20 03:53:10;;;;;;;13.13;6.50;;;;;;;10.71;79.20;102255.84;5203640;22;20081;-62
2023/05/20 03:58:04;;;;;;;14.48;6.78;;;;;;;10.73;79.29;102253.31;5127223;22;20091;-61
2023/05/20 04:00:30;;;;;;;12.68;6.50;;;;;;;10.66;78.01;102259.97;5222089;23;20053;-61
2023/05/20 04:05:31;;;;;;;12.68;7.07;;;;;;;10.63;79.73;102253.69;5210712;23;20107;-61
2023/05/20 04:07:56;;;;;;;15.13;6.97;;;;;;;10.63;79.90;102256.31;5199832;23;20045;-62
2023/05/20 04:10:22;;;;;;;12.40;7.03;;;;;;;10.60;79.94;102250.16;5215526;22;20491;-61
2023/05/20 04:12:47;;;;;;;13.38;6.75;;;;;;;10.59;80.49;102253.56;5256730;22;21048;-62
2023/05/20 04:15:13;;;;;;;14.43;6.85;;;;;;;10.60;80.56;102252.75;5265085;22;20056;-62
2023/05/20 04:17:39;;;;;;;11.70;6.57;;;;;;;10.58;79.45;102254.38;5230775;22;20093;-63
2023/05/20 04:20:06;;;;;;;12.60;7.70;;;;;;;10.60;80.66;102259.66;5200802;22;20057;-63
2023/05/20 04:22:32;;;;;;;15.93;9.60;;;;;;;10.60;81.24;102260.56;5087477;23;20029;-63
2023/05/20 04:27:27;;;;;;;11.77;7.28;;;;;;;10.59;81.59;102261.38;5377721;22;20046;-63
2023/05/20 04:32:28;;;;;;;14.10;7.20;;;;;;;10.58;81.30;102259.59;5178721;23;20062;-63
2023/05/20 04:34:54;;;;;;;16.10;7.43;;;;;;;10.59;81.92;102264.00;5056229;22;20017;-63
2023/05/20 04:44:55;;;;;;;15.13;7.50;;;;;;;10.63;82.09;102252.00;5199502;23;20047;-63
2023/05/20 04:49:50;;;;;;;13.23;7.40;;;;;;;10.67;82.77;102258.25;5359943;22;20053;-63
2023/05/20 04:54:45;;;;;;;13.18;7.13;;;;;;;10.67;82.21;102259.13;5214490;22;20057;-63
2023/05/20 04:57:11;;;;;;;16.00;7.38;;;;;;;10.72;83.23;102256.75;5113906;23;20133;-63
2023/05/20 05:04:43;;;;;;;12.93;7.35;;;;;;;10.77;83.49;102258.72;5197172;22;20131;-63
2023/05/20 05:07:08;;;;;;;13.45;7.28;;;;;;;10.79;83.56;102259.69;5366815;22;20060;-63
2023/05/20 05:11:59;;;;;;;13.93;7.23;;;;;;;10.79;80.61;102248.38;5416299;23;20099;-63
2023/05/20 05:14:24;;;;;;;48.75;25.45;;;;;;;10.80;80.91;102244.94;5229401;22;20383;-63
2023/05/20 05:16:49;;;;;;;22.92;12.55;;;;;;;10.85;82.19;102234.69;5151199;22;20666;-63
2023/05/20 05:19:15;;;;;;;17.50;9.68;;;;;;;10.90;83.55;102231.47;5242608;22;20056;-63
2023/05/20 05:21:40;;;;;;;13.40;7.95;;;;;;;10.95;81.38;102243.03;5225411;23;20191;-63
2023/05/20 05:26:35;;;;;;;12.10;6.97;;;;;;;11.01;82.58;102231.06;5080317;22;20072;-63
2023/05/20 05:36:45;;;;;;;20.03;7.37;;;;;;;11.20;82.61;102246.72;5227976;22;1091392;-63
2023/05/20 05:39:36;;;;;;;14.23;7.30;;;;;;;11.26;83.00;102246.09;5147519;22;20097;31
2023/05/20 05:47:12;;;;;;;12.38;7.05;;;;;;;11.37;81.02;102234.41;5317818;23;20057;-63
2023/05/20 05:49:37;;;;;;;13.68;7.72;;;;;;;11.45;84.05;102235.59;5028833;28;20025;-63
2023/05/20 05:52:02;;;;;;;9.73;6.03;;;;;;;11.53;81.56;102230.72;5364962;22;20140;-63
2023/05/20 05:54:28;;;;;;;11.65;7.20;;;;;;;11.57;79.89;102235.25;5160499;22;20069;-63
2023/05/20 05:56:55;;;;;;;12.02;6.93;;;;;;;11.66;80.98;102238.22;5344383;22;20412;-63
2023/05/20 05:59:21;;;;;;;12.68;7.30;;;;;;;11.74;79.04;102235.03;5191972;22;20062;-63
2023/05/20 06:01:46;;;;;;;10.95;7.18;;;;;;;11.84;82.18;102242.44;5342050;22;20057;-64
2023/05/20 06:04:11;;;;;;;12.50;7.32;;;;;;;11.92;82.31;102235.81;5012797;28;20504;-64
2023/05/20 06:09:06;;;;;;;11.17;7.20;;;;;;;12.12;79.03;102243.56;5237482;22;20061;-64
2023/05/20 06:11:32;;;;;;;13.65;7.57;;;;;;;12.25;80.31;102252.78;5171950;22;20021;-64
2023/05/20 06:13:57;;;;;;;10.75;7.50;;;;;;;12.33;78.08;102239.19;5209158;23;20622;-64
2023/05/20 06:16:22;;;;;;;16.33;7.78;;;;;;;12.45;80.47;102238.75;5195828;22;20033;-64
2023/05/20 06:18:52;;;;;;;13.75;7.60;;;;;;;12.57;79.92;102235.75;5100372;22;20057;-64
2023/05/20 06:23:52;;;;;;;14.65;7.43;;;;;;;12.77;79.90;102225.13;5362465;22;20052;-64
2023/05/20 06:28:42;;;;;;;11.05;7.47;;;;;;;12.97;79.73;102218.88;5397271;22;20024;-64
2023/05/20 06:31:08;;;;;;;11.82;7.55;;;;;;;13.08;78.47;102215.75;5381542;22;20107;-64
2023/05/20 06:33:33;;;;;;;10.65;7.30;;;;;;;13.21;77.49;102218.00;5307267;23;20064;-64
2023/05/20 06:36:00;;;;;;;10.13;7.13;;;;;;;13.30;77.69;102218.28;5213167;22;20046;-64
2023/05/20 06:38:26;;;;;;;12.90;7.75;;;;;;;13.37;78.51;102212.47;5139142;22;20063;-65
2023/05/20 06:55:54;;;;;;;10.43;6.72;;;;;;;14.14;75.07;102195.72;5260716;22;20781;-65
2023/05/20 06:58:20;;;;;;;40.45;25.35;;;;;;;14.33;75.30;102191.03;5341212;23;20132;-64
2023/05/20 07:00:46;;;;;;;22.17;13.05;;;;;;;14.42;76.09;102186.06;5260105;23;20060;-64
2023/05/20 07:03:45;;;;;;;;;;;;;;;;;;;;;
2023/05/20 07:06:11;;;;;;;11.57;6.65;;;;;;;14.69;72.98;102186.00;5038461;28;20126;-96
2023/05/20 07:08:47;;;;;;;;;;;;;;;;;;;;;
2023/05/20 07:11:12;;;;;;;8.75;6.47;;;;;;;14.89;71.77;102177.81;5033727;28;20402;-96
2023/05/20 07:14:12;;;;;;;21.05;13.18;;;;;;;15.02;73.74;102181.63;5018982;28;20130;-96
2023/05/20 07:17:02;;;;;;;;;;;;;;;;;;;;;
2023/05/20 07:19:27;;;;;;;12.05;6.70;;;;;;;15.26;70.98;102189.25;5005994;23;20053;-63
2023/05/20 07:22:00;;;;;;;11.23;7.07;;;;;;;15.33;67.81;102180.69;5041090;22;20108;-96
2023/05/20 07:24:38;;;;;;;9.07;6.60;;;;;;;15.41;69.44;102179.16;5044349;28;20033;-96
2023/05/20 07:27:25;;;;;;;8.77;5.85;;;;;;;15.59;71.75;102177.84;5057940;28;20085;-97
2023/05/20 07:35:25;;;;;;;10.30;6.57;;;;;;;15.88;68.22;102177.69;5120683;22;20053;-96
2023/05/20 07:38:03;;;;;;;10.27;6.22;;;;;;;15.98;66.55;102167.38;5030387;28;20471;-96
2023/05/20 07:40:35;;;;;;;10.32;6.72;;;;;;;16.09;64.30;102169.38;5030977;28;20053;-96
2023/05/20 07:43:01;;;;;;;10.48;6.07;;;;;;;16.21;64.79;102164.41;5033890;28;20037;-96
2023/05/20 07:45:29;;;;;;;8.75;5.97;;;;;;;16.30;64.15;102163.69;5035275;28;20378;-95
2023/05/20 07:48:13;;;;;;;;;;;;;;;;;;;;;
2023/05/20 07:50:39;;;;;;;10.27;6.10;;;;;;;16.60;64.92;102170.47;5049468;28;20105;-96
2023/05/20 07:53:18;;;;;;;8.48;6.05;;;;;;;16.72;67.48;102159.28;5017925;28;20037;-96
2023/05/20 07:56:12;;;;;;;;;;;;;;;16.82;65.36;102166.50;5020885;28;20025;-96
2023/05/20 07:58:40;;;;;;;11.05;6.40;;;;;;;16.84;64.58;102157.78;5024635;28;19959;-96
2023/05/20 08:01:08;;;;;;;11.52;6.30;;;;;;;16.98;63.22;102160.69;5014218;28;20025;-96
2023/05/20 08:03:41;;;;;;;10.30;6.25;;;;;;;17.02;62.60;102153.72;5020827;28;20080;-96
2023/05/20 08:06:23;;;;;;;9.30;5.70;;;;;;;16.97;60.94;102152.75;5042678;28;20030;-96
2023/05/20 08:09:01;;;;;;;11.93;6.60;;;;;;;16.94;60.67;102157.97;5033993;28;20026;-96
2023/05/20 08:11:29;;;;;;;10.30;6.20;;;;;;;17.09;63.56;102147.72;5033146;28;20029;-96
2023/05/20 08:14:02;;;;;;;10.85;7.05;;;;;;;17.26;61.79;102157.66;5012918;28;20032;-96
2023/05/20 08:16:28;;;;;;;11.85;6.03;;;;;;;17.38;59.66;102148.19;5027761;28;20057;-96
2023/05/20 08:18:56;;;;;;;11.68;5.78;;;;;;;17.58;63.39;102130.94;5018687;28;20025;-96
2023/05/20 08:21:27;;;;;;;9.77;6.10;;;;;;;17.56;58.40;102139.69;5010496;28;20032;-96
2023/05/20 08:24:17;;;;;;;11.13;6.05;;;;;;;17.49;58.88;102148.34;5031277;28;20041;-96
2023/05/20 08:29:38;;;;;;;9.77;6.20;;;;;;;17.81;59.42;102132.13;5166785;23;20057;-96
2023/05/20 08:32:04;;;;;;;12.13;5.30;;;;;;;18.03;59.90;102130.75;5051726;28;20047;-96
2023/05/20 08:34:29;;;;;;;8.32;5.30;;;;;;;18.25;61.68;102128.38;5043531;22;20057;-63
2023/05/20 08:36:55;;;;;;;12.00;5.70;;;;;;;18.45;57.67;102123.34;5187122;23;20058;-63
2023/05/20 08:39:21;;;;;;;10.93;6.38;;;;;;;18.34;55.96;102131.13;5015889;28;20037;-64
2023/05/20 08:41:47;;;;;;;10.85;6.18;;;;;;;18.29;54.81;102129.28;5206230;22;20061;-64
2023/05/20 08:44:12;;;;;;;12.82;6.50;;;;;;;18.36;55.98;102128.50;5299428;23;20420;-64
2023/05/20 08:46:38;;;;;;;12.48;6.13;;;;;;;18.56;57.85;102129.59;5438265;22;20570;-64
2023/05/20 08:49:03;;;;;;;10.88;6.13;;;;;;;18.79;56.27;102123.69;5151358;22;20123;-65
2023/05/20 08:51:32;;;;;;;13.90;6.60;;;;;;;19.03;56.46;102123.09;5322770;23;20815;-65
2023/05/20 08:53:59;;;;;;;10.20;6.05;;;;;;;19.11;55.21;102112.56;5180728;22;21133;-64
2023/05/20 08:56:26;;;;;;;13.93;6.95;;;;;;;19.21;55.76;102113.53;5274352;22;20594;-64
2023/05/20 08:58:52;;;;;;;10.05;5.32;;;;;;;19.36;55.26;102115.41;5187890;23;20057;-65
2023/05/20 09:06:20;;;;;;;11.88;5.43;;;;;;;19.50;56.56;102112.88;5226887;22;20559;-64
2023/05/20 09:08:47;;;;;;;11.40;5.63;;;;;;;19.51;53.83;102107.59;5388892;22;20050;-65
2023/05/20 09:11:13;;;;;;;10.85;5.60;;;;;;;19.61;54.76;102101.50;5391000;22;20057;-64
2023/05/20 09:13:38;;;;;;;7.30;5.20;;;;;;;19.78;56.06;102096.34;5384856;22;21015;-64
2023/05/20 09:16:27;;;;;;;11.63;5.35;;;;;;;19.95;55.46;102106.13;5328221;23;20053;-96
2023/05/20 09:19:30;;;;;;;;;;;;;;;20.11;56.13;102099.13;5039409;28;20135;-96
2023/05/20 09:21:57;;;;;;;10.80;5.38;;;;;;;20.12;52.06;102100.91;5042034;28;19966;-96
2023/05/20 09:24:24;;;;;;;10.98;5.90;;;;;;;20.28;55.63;102094.78;5033576;28;20044;-96
2023/05/20 09:27:15;;;;;;;9.32;5.68;;;;;;;20.37;51.84;102096.56;5035099;28;20024;-96
2023/05/20 09:29:42;;;;;;;11.88;5.63;;;;;;;20.50;52.98;102097.50;5030533;28;20037;-96
2023/05/20 09:32:10;;;;;;;8.93;5.65;;;;;;;20.43;49.70;102096.59;5037418;28;20025;-96
2023/05/20 09:34:39;;;;;;;8.98;6.05;;;;;;;20.55;51.55;102101.06;5030114;28;20075;-96
2023/05/20 09:42:36;;;;;;;10.10;6.25;;;;;;;20.52;52.30;102098.38;5307099;22;20041;-63
2023/05/20 09:45:04;;;;;;;10.48;7.07;;;;;;;20.42;50.24;102102.78;5341628;22;20459;-64
2023/05/20 09:47:30;;;;;;;8.20;6.10;;;;;;;20.33;50.64;102094.78;5421594;23;20103;-62
2023/05/20 09:49:56;;;;;;;12.25;6.35;;;;;;;20.45;51.44;102093.94;5305376;23;20065;-64
2023/05/20 09:54:55;;;;;;;11.90;6.40;;;;;;;20.27;50.21;102100.94;5423100;23;20571;-62
2023/05/20 09:57:20;;;;;;;8.48;6.25;;;;;;;19.92;49.11;102098.16;5377404;23;20065;-64
2023/05/20 09:59:46;;;;;;;8.75;6.05;;;;;;;19.63;50.62;102089.16;5223458;22;20065;-62
2023/05/20 10:04:50;;;;;;;9.30;5.93;;;;;;;20.09;51.85;102082.38;5416310;22;20035;-62
2023/05/20 10:09:57;;;;;;;9.18;6.00;;;;;;;20.26;51.49;102074.47;5111721;22;20053;-63
2023/05/20 10:12:51;;;;;;;12.75;5.72;;;;;;;20.46;52.31;102079.81;5223740;22;20049;-63
2023/05/20 10:15:37;;;;;;;9.30;5.72;;;;;;;20.54;48.09;102070.16;5181558;23;20104;-62
2023/05/20 10:18:21;;;;;;;8.50;5.18;;;;;;;20.88;52.40;102069.34;5165231;22;20036;-62
2023/05/20 10:20:48;;;;;;;8.95;5.43;;;;;;;21.31;53.21;102062.22;5095632;23;21076;-62
2023/05/20 10:25:52;;;;;;;7.47;4.65;;;;;;;21.80;47.52;102060.38;5345632;23;20031;-63
2023/05/20 10:33:26;;;;;;;7.20;4.72;;;;;;;21.73;48.79;102054.19;5097557;23;20064;-64
2023/05/20 10:35:53;;;;;;;7.13;4.80;;;;;;;21.55;45.64;102049.81;5351434;22;20603;-63
2023/05/20 10:38:20;;;;;;;6.80;5.03;;;;;;;21.14;44.66;102046.34;5446976;22;20506;-63
2023/05/20 10:40:45;;;;;;;7.97;5.32;;;;;;;20.47;44.95;102050.69;5220863;22;20819;-63
2023/05/20 10:43:34;;;;;;;7.60;4.72;;;;;;;20.60;52.12;102048.09;5211717;23;20881;-64
2023/05/20 10:46:00;;;;;;;8.63;4.35;;;;;;;21.29;47.78;102032.19;5170906;22;20115;-63
2023/05/20 10:48:31;;;;;;;8.10;5.18;;;;;;;21.51;49.64;102035.69;5129602;22;20049;-62
2023/05/20 10:53:26;;;;;;;7.43;4.97;;;;;;;21.68;48.34;102037.41;5320729;22;20065;-61
2023/05/20 10:55:56;;;;;;;7.72;4.63;;;;;;;21.83;48.54;102037.34;5241619;22;20048;-61
2023/05/20 10:58:23;;;;;;;9.55;5.07;;;;;;;21.83;47.91;102036.50;5177704;22;20077;-61
2023/05/20 11:00:57;;;;;;;8.13;4.75;;;;;;;21.83;46.85;102031.19;5217886;22;20072;-96
2023/05/20 11:03:46;;;;;;;8.13;4.55;;;;;;;21.47;46.22;102022.44;5054046;28;20113;-96
2023/05/20 11:06:39;;;;;;;7.43;4.43;;;;;;;21.30;46.57;102022.47;5037245;28;20032;-96
2023/05/20 11:09:05;;;;;;;8.80;5.20;;;;;;;21.36;47.81;102022.44;5085943;23;1105116;-62
2023/05/20 11:11:40;;;;;;;7.88;4.60;;;;;;;21.71;48.99;102017.06;5157436;23;20071;31
2023/05/20 11:14:06;;;;;;;6.15;4.50;;;;;;;21.93;45.50;102016.06;5250158;22;21044;-63
2023/05/20 11:16:31;;;;;;;7.10;4.28;;;;;;;22.05;47.01;102006.28;5159335;22;20040;-63
2023/05/20 11:18:59;;;;;;;7.85;4.43;;;;;;;21.97;45.83;102000.16;5280792;22;20107;-96
2023/05/20 11:21:34;;;;;;;10.20;4.23;;;;;;;22.38;51.02;102008.78;5038399;28;20053;-96
2023/05/20 11:24:00;;;;;;;9.65;5.10;;;;;;;22.10;45.57;102013.34;5031796;28;20295;-96
2023/05/20 11:26:25;;;;;;;9.65;4.50;;;;;;;22.39;48.24;102007.88;5024065;28;20113;-96
2023/05/20 11:28:55;;;;;;;6.55;4.45;;;;;;;22.82;47.73;102002.22;5025384;28;20022;-96
2023/05/20 11:31:30;;;;;;;8.68;4.60;;;;;;;22.93;47.79;102003.00;5024109;28;20112;-96
2023/05/20 11:34:00;;;;;;;6.88;4.20;;;;;;;23.17;45.77;102005.47;5024409;28;20045;-96
2023/05/20 11:36:29;;;;;;;8.75;4.55;;;;;;;22.92;42.94;102000.34;5025399;28;20031;-96
2023/05/20 11:39:16;;;;;;;;;;;;;;;22.66;45.25;102001.47;5014638;28;20018;-96
2023/05/20 11:41:42;;;;;;;6.70;4.10;;;;;;;22.29;47.99;102001.72;5056162;23;20355;-64
2023/05/20 11:46:41;;;;;;;7.88;4.10;;;;;;;22.01;45.24;102001.00;5331385;22;20025;-65
2023/05/20 11:49:14;;;;;;;9.02;4.80;;;;;;;21.85;46.23;101987.81;5225106;22;20056;-96
2023/05/20 11:56:50;;;;;;;7.65;4.10;;;;;;;22.20;45.61;101993.81;5021309;28;20045;-65
2023/05/20 12:01:46;;;;;;;9.75;7.63;;;;;;;21.98;45.85;101987.75;5170988;22;20053;-96
2023/05/20 12:04:53;;;;;;;8.80;4.75;;;;;;;21.73;48.35;101987.88;5060231;28;20224;-96
2023/05/20 12:07:29;;;;;;;6.95;3.95;;;;;;;22.28;49.14;101977.84;5044909;28;20041;-96
2023/05/20 12:09:57;;;;;;;8.75;3.90;;;;;;;22.78;47.14;101970.38;5041620;28;20035;-96
2023/05/20 12:15:29;;;;;;;6.85;4.68;;;;;;;22.78;41.69;101978.34;5013551;28;20989;-63
2023/05/20 12:18:04;;;;;;;6.35;4.45;;;;;;;22.33;43.09;101965.44;5115799;23;20049;-96
2023/05/20 12:20:32;;;;;;;7.55;4.10;;;;;;;22.63;49.25;101968.75;5042405;28;20017;-96
2023/05/20 12:22:58;;;;;;;6.22;4.50;;;;;;;22.90;46.41;101951.66;5044493;28;20092;-96
2023/05/20 12:25:24;;;;;;;8.90;4.25;;;;;;;22.79;48.34;101957.06;5105388;22;20020;-63
2023/05/20 12:27:49;;;;;;;7.40;4.80;;;;;;;22.84;48.72;101951.69;5265954;22;20040;-63
2023/05/20 12:30:20;;;;;;;6.45;4.03;;;;;;;22.77;46.80;101960.63;5105541;23;20045;-63
2023/05/20 12:35:49;;;;;;;8.35;4.15;;;;;;;22.85;48.34;101956.13;5047627;28;20045;-96
2023/05/20 12:40:44;;;;;;;8.02;4.22;;;;;;;22.76;46.24;101949.13;5049467;22;20050;-64
2023/05/20 12:51:00;;;;;;;5.82;4.63;;;;;;;22.19;46.99;101958.41;5095277;23;20058;-96
2023/05/20 12:54:26;;;;;;;6.10;4.03;;;;;;;22.33;48.17;101949.50;4996953;28;20102;-96
2023/05/20 12:57:02;;;;;;;;;;;;;;;;;;;;;
2023/05/20 12:59:28;;;;;;;7.40;3.88;;;;;;;22.61;48.12;101942.19;4996352;28;20125;-96
2023/05/20 13:02:09;;;;;;;7.90;4.20;;;;;;;22.57;48.16;101945.78;4992004;28;20061;-96
2023/05/20 13:04:46;;;;;;;7.93;4.40;;;;;;;22.54;47.83;101945.81;4998492;28;20043;-96
2023/05/20 13:07:51;;;;;;;;;;;;;;;;;;;;;
2023/05/20 13:10:22;;;;;;;7.43;4.30;;;;;;;22.59;48.12;101954.59;4996629;28;20102;-96
2023/05/20 13:13:03;;;;;;;;;;;;;;;;;;;;;
2023/05/20 13:15:48;;;;;;;6.40;3.90;;;;;;;23.07;49.54;101944.38;4995667;28;20022;-96
2023/05/20 13:18:22;;;;;;;5.82;4.00;;;;;;;23.26;48.99;101944.22;4997009;28;20058;-96
2023/05/20 13:20:53;;;;;;;6.47;4.38;;;;;;;23.15;47.45;101932.81;4981267;28;20377;-96
2023/05/20 13:24:07;;;;;;;;;;;;;;;;;;;;;
2023/05/20 13:26:44;;;;;;;6.25;3.85;;;;;;;22.84;45.68;101936.66;5011440;28;20050;-96
2023/05/20 13:29:10;;;;;;;7.15;4.30;;;;;;;22.68;45.83;101935.94;5029872;23;20049;-65
2023/05/20 13:31:36;;;;;;;8.20;4.43;;;;;;;22.53;49.90;101944.91;5170358;22;20107;-66
2023/05/20 13:36:46;;;;;;;4.32;3.33;;;;;;;22.85;47.31;101929.56;5086633;22;20045;-95
2023/05/20 13:39:20;;;;;;;6.35;3.83;;;;;;;22.89;48.15;101925.97;5040761;28;20029;-96
2023/05/20 13:41:58;;;;;;;5.72;3.75;;;;;;;23.08;49.78;101930.19;5039126;28;20036;-96
2023/05/20 13:44:49;;;;;;;6.28;4.20;;;;;;;22.95;46.30;101930.34;5040526;28;20052;-96
2023/05/20 13:47:20;;;;;;;7.18;4.28;;;;;;;22.67;45.17;101927.97;5040066;28;20037;-96
2023/05/20 13:49:45;;;;;;;7.45;3.97;;;;;;;22.55;45.64;101928.94;5026782;28;20124;-96
2023/05/20 13:52:10;;;;;;;7.03;3.95;;;;;;;22.25;44.31;101925.63;5023891;28;20125;-96
2023/05/20 13:54:36;;;;;;;4.70;3.28;;;;;;;21.71;44.83;101926.88;5022287;28;20059;-96
2023/05/20 13:57:06;;;;;;;6.07;3.40;;;;;;;21.57;48.55;101923.41;5024919;28;20501;-96
2023/05/20 13:59:37;;;;;;;5.22;3.70;;;;;;;21.68;47.40;101918.94;5044152;28;20022;-96
2023/05/20 14:02:03;;;;;;;5.10;3.50;;;;;;;21.56;45.37;101912.81;5037800;28;20025;-96
2023/05/20 14:04:29;;;;;;;5.15;3.17;;;;;;;21.74;49.31;101922.44;5030430;28;20036;-96
2023/05/20 14:07:14;;;;;;;;;;;;;;;;;;;;;
2023/05/20 14:09:40;;;;;;;6.22;4.07;;;;;;;22.24;48.19;101918.56;5044623;28;20021;-95
2023/05/20 14:12:06;;;;;;;6.85;3.67;;;;;;;22.12;48.16;101916.00;5028110;28;20393;-96
2023/05/20 14:14:34;;;;;;;9.05;4.20;;;;;;;21.99;46.46;101915.22;5050141;28;20033;-96
2023/05/20 14:17:02;;;;;;;5.68;3.35;;;;;;;21.92;48.05;101911.72;5026846;28;20030;-96
2023/05/20 14:19:28;;;;;;;7.50;3.77;;;;;;;22.15;48.31;101905.38;5032418;28;20025;-96
2023/05/20 14:22:07;;;;;;;;;;;;;;;;;;;;;
2023/05/20 14:24:46;;;;;;;;;;;;;;;;;;;;;
2023/05/20 14:27:14;;;;;;;5.10;3.85;;;;;;;22.50;48.80;101902.44;5045180;28;20094;-96
2023/05/20 14:29:47;;;;;;;4.97;3.80;;;;;;;22.62;48.49;101895.25;5049173;28;20060;-96
2023/05/20 14:32:18;;;;;;;4.95;3.85;;;;;;;22.30;44.21;101889.28;5027928;28;20127;-96
2023/05/20 14:35:04;;;;;;;5.93;3.67;;;;;;;22.10;48.15;101885.94;5028019;28;20029;-96
2023/05/20 14:38:20;;;;;;;;;;;;;;;;;;;;;
2023/05/20 14:40:38;;;;;;;7.03;3.70;;;;;;;22.43;47.72;101876.81;5025214;28;20037;-96
2023/05/20 14:43:33;;;;;;;;;;;;;;;;;;;;;
2023/05/20 14:46:09;;;;;;;5.22;3.83;;;;;;;22.16;48.03;101878.81;5028910;28;20101;-96
2023/05/20 14:48:52;;;;;;;6.00;3.70;;;;;;;21.86;47.34;101878.13;5030570;28;20029;-96